This is the latest recevied weather packets stored in our database for station/object K7AC-13. If no packets are shown the sender has not sent any weather packets the latest 10 day(s).
| Time | Temp. | Humidity | Pressure | Rain* | Wind** | Luminosity | Snow |
|---|---|---|---|---|---|---|---|
| 1777907750 | 22.78° C | 45% | 1013.2 hPa | 0 mm | - | - | - |
| 1777904154 | 21.11° C | 47% | 1012.9 hPa | 0 mm | - | - | - |
| 1777899646 | 20.56° C | 47% | 1012.2 hPa | 0 mm | - | - | - |
| 1777894252 | 21.67° C | 44% | 1011.6 hPa | 0 mm | - | - | - |
| 1777886151 | 22.78° C | 44% | 1011.4 hPa | 0 mm | - | - | - |
| 1777881654 | 23.33° C | 40% | 1011.4 hPa | 0 mm | - | - | - |
| 1777880754 | 23.89° C | 39% | 1011.6 hPa | 0 mm | - | - | - |
| 1777878945 | 23.89° C | 37% | 1011.5 hPa | 0 mm | - | - | - |
| 1777878051 | 24.44° C | 36% | 1011.5 hPa | 0 mm | - | - | - |
| 1777873552 | 25.56° C | 31% | 1011.3 hPa | 0 mm | - | - | - |
| 1777870852 | 26.11° C | 29% | 1011.1 hPa | 0 mm | - | - | - |
| 1777869950 | 26.67° C | 28% | 1011.1 hPa | 0 mm | - | - | - |
| 1777869051 | 26.67° C | 26% | 1011 hPa | 0 mm | - | - | - |
| 1777866356 | 27.78° C | 25% | 1010.1 hPa | 0 mm | - | - | - |
| 1777865458 | 27.78° C | 25% | 1009.8 hPa | 0 mm | - | - | - |
| 1777854646 | 33.89° C | 14% | 1007.7 hPa | 0 mm | - | - | - |
| 1777853744 | 34.44° C | 15% | 1007.6 hPa | 0 mm | - | - | - |
| 1777850153 | 36.11° C | 16% | 1007.7 hPa | 0 mm | - | - | - |
| 1777841149 | 34.44° C | 19% | 1010.2 hPa | 0 mm | - | - | - |
| 1777840256 | 33.89° C | 19% | 1010.5 hPa | 0 mm | - | - | - |
| 1777832156 | 32.22° C | 25% | 1012.1 hPa | 0 mm | - | - | - |
| 1777824952 | 28.89° C | 29% | 1012.9 hPa | 0 mm | - | - | - |
| 1777823161 | 27.78° C | 31% | 1012.8 hPa | 0 mm | - | - | - |
| 1777815944 | 23.89° C | 36% | 1012.5 hPa | 0 mm | - | - | - |
| 1777811452 | 23.33° C | 37% | 1011.6 hPa | 0 mm | - | - | - |
* Rain latest hour (hover to see other rain measurements)
** Current wind speed in m/s (hover to see current wind gust speed)